createdAt,value
2024-05-09T00:00:22.043Z,60.49
2024-05-09T00:05:31.657Z,60.86
2024-05-09T00:10:38.935Z,61.11
2024-05-09T00:15:47.689Z,60.51
2024-05-09T00:20:52.857Z,60.68
2024-05-09T00:25:58.124Z,60.81
2024-05-09T00:31:05.998Z,60.28
2024-05-09T00:36:11.191Z,60.28
2024-05-09T00:41:19.014Z,60.42
2024-05-09T00:46:27.643Z,60.48
2024-05-09T00:51:32.766Z,60.32
2024-05-09T00:56:38.275Z,60.13
2024-05-09T01:01:48.377Z,59.90
2024-05-09T01:06:53.643Z,60.11
2024-05-09T01:11:58.860Z,61.16
2024-05-09T01:17:07.353Z,61.21
2024-05-09T01:22:12.551Z,60.84
2024-05-09T01:27:21.174Z,60.37
2024-05-09T01:32:26.479Z,60.65
2024-05-09T01:37:31.733Z,60.85
2024-05-09T01:42:39.483Z,59.30
2024-05-09T01:47:44.823Z,59.43
2024-05-09T01:52:50.094Z,61.54
2024-05-09T01:57:57.887Z,60.97
2024-05-09T02:03:03.306Z,62.76
2024-05-09T02:08:09.628Z,63.50
2024-05-09T02:13:18.108Z,62.16
2024-05-09T02:18:23.771Z,62.90
2024-05-09T02:23:29.154Z,62.49
2024-05-09T02:28:37.084Z,61.96
2024-05-09T02:33:42.372Z,62.15
2024-05-09T02:38:47.784Z,61.89
2024-05-09T02:43:55.633Z,62.47
2024-05-09T02:49:00.886Z,62.07
2024-05-09T02:54:07.712Z,61.92
2024-05-09T02:59:16.022Z,62.02
2024-05-09T03:04:21.531Z,62.66
2024-05-09T03:09:26.939Z,62.67
2024-05-09T03:14:34.725Z,63.44
2024-05-09T03:19:40.144Z,63.98
2024-05-09T03:24:45.322Z,63.85
2024-05-09T03:29:53.316Z,63.82
2024-05-09T03:34:58.499Z,62.82
2024-05-09T03:40:05.584Z,63.21
2024-05-09T03:45:14.952Z,63.39
2024-05-09T03:50:26.325Z,63.29
2024-05-09T03:55:38.970Z,63.27
2024-05-09T04:00:46.793Z,62.38
2024-05-09T04:05:52.043Z,62.59
2024-05-09T04:10:57.214Z,62.98
2024-05-09T04:16:05.033Z,63.27
2024-05-09T04:21:10.400Z,64.06
2024-05-09T04:26:15.777Z,65.29
2024-05-09T04:31:23.668Z,65.19
2024-05-09T04:36:28.763Z,64.75
2024-05-09T04:41:34.005Z,65.94
2024-05-09T04:46:42.200Z,64.89
2024-05-09T04:51:47.358Z,65.26
2024-05-09T04:56:52.618Z,65.25
2024-05-09T05:02:00.554Z,64.82
2024-05-09T05:07:05.914Z,65.53
2024-05-09T05:12:31.632Z,66.28
2024-05-09T05:17:39.621Z,66.90
2024-05-09T05:22:44.929Z,67.07
2024-05-09T05:27:50.176Z,67.87
2024-05-09T05:32:58.003Z,67.77
2024-05-09T05:38:04.004Z,68.69
2024-05-09T05:43:10.773Z,69.51
2024-05-09T05:48:19.326Z,69.91
2024-05-09T05:53:24.839Z,69.83
2024-05-09T05:58:30.126Z,69.22
2024-05-09T06:03:38.459Z,70.22
2024-05-09T06:08:44.187Z,71.60
2024-05-09T06:13:49.445Z,70.39
2024-05-09T06:18:57.417Z,71.41
2024-05-09T06:24:06.541Z,70.63
2024-05-09T06:29:12.484Z,69.93
2024-05-09T06:34:21.754Z,69.82
2024-05-09T06:39:27.181Z,68.59
2024-05-09T06:44:32.672Z,68.91
2024-05-09T06:49:41.426Z,68.64
2024-05-09T06:54:46.561Z,67.11
2024-05-09T06:59:51.740Z,67.83
2024-05-09T07:04:59.560Z,67.04
2024-05-09T07:10:06.281Z,68.30
2024-05-09T07:15:13.394Z,63.25
2024-05-09T07:20:31.676Z,61.52
2024-05-09T07:25:39.838Z,61.39
2024-05-09T07:30:45.179Z,60.84
2024-05-09T07:35:53.167Z,60.94
2024-05-09T07:40:58.526Z,61.04
2024-05-09T07:47:03.854Z,58.60
2024-05-09T07:53:08.269Z,56.66
2024-05-09T07:56:57.560Z,55.97
2024-05-09T08:02:03.029Z,55.52
2024-05-09T08:07:11.174Z,57.06
2024-05-09T08:12:16.605Z,56.11
2024-05-09T08:17:21.823Z,53.15
2024-05-09T08:22:32.165Z,54.18
2024-05-09T08:27:37.390Z,52.66
2024-05-09T08:32:43.127Z,52.30
2024-05-09T08:37:53.537Z,52.16
2024-05-09T08:43:00.712Z,52.68
2024-05-09T08:48:07.795Z,50.90
2024-05-09T08:53:15.857Z,52.80
2024-05-09T08:58:21.768Z,51.04
2024-05-09T09:03:30.413Z,50.31
2024-05-09T09:08:41.569Z,52.44
2024-05-09T09:13:46.699Z,48.18
2024-05-09T09:18:52.134Z,47.07
2024-05-09T09:24:00.534Z,48.37
2024-05-09T09:29:05.722Z,46.79
2024-05-09T09:34:11.490Z,45.26
2024-05-09T09:39:23.163Z,48.15
2024-05-09T09:44:28.526Z,47.64
2024-05-09T09:49:36.780Z,45.11
2024-05-09T09:54:46.670Z,44.09
2024-05-09T09:59:53.121Z,43.93
2024-05-09T10:04:59.117Z,42.90
2024-05-09T10:10:10.982Z,44.23
2024-05-09T10:15:22.451Z,43.23
2024-05-09T10:20:30.932Z,42.08
2024-05-09T10:25:40.462Z,40.73
2024-05-09T10:30:50.351Z,41.33
2024-05-09T10:35:55.659Z,41.40
2024-05-09T10:41:03.701Z,41.16
2024-05-09T10:46:09.395Z,38.80
2024-05-09T10:51:16.207Z,39.19
2024-05-09T10:56:23.977Z,39.94
2024-05-09T11:01:29.678Z,38.00
2024-05-09T11:06:38.140Z,37.98
2024-05-09T11:11:46.201Z,39.95
2024-05-09T11:17:01.430Z,39.39
2024-05-09T11:22:07.260Z,37.45
2024-05-09T11:27:15.432Z,38.53
2024-05-09T11:32:32.709Z,40.91
2024-05-09T11:37:40.812Z,37.40
2024-05-09T11:42:51.505Z,38.51
2024-05-09T11:47:58.327Z,36.35
2024-05-09T11:53:03.628Z,35.14
2024-05-09T11:58:12.441Z,39.02
2024-05-09T12:03:17.790Z,35.52
2024-05-09T12:08:23.022Z,34.21
2024-05-09T12:13:30.883Z,33.79
2024-05-09T12:18:36.544Z,35.29
2024-05-09T12:23:41.773Z,35.44
2024-05-09T12:28:49.533Z,33.31
2024-05-09T12:33:54.843Z,34.09
2024-05-09T12:39:00.097Z,33.98
2024-05-09T12:44:08.257Z,33.24
2024-05-09T12:49:16.392Z,34.83
2024-05-09T12:54:22.454Z,33.01
2024-05-09T12:59:30.296Z,32.29
2024-05-09T13:04:35.635Z,33.33
2024-05-09T13:09:41.072Z,32.64
2024-05-09T13:14:48.830Z,34.18
2024-05-09T13:19:54.073Z,32.85
2024-05-09T13:24:59.390Z,34.07
2024-05-09T13:30:12.003Z,33.64
2024-05-09T13:35:22.976Z,33.21
2024-05-09T13:40:33.586Z,35.62
2024-05-09T13:45:43.722Z,33.88
2024-05-09T13:50:48.921Z,31.90
2024-05-09T13:55:54.236Z,31.41
2024-05-09T14:01:02.313Z,31.37
2024-05-09T14:06:12.080Z,30.98
2024-05-09T14:11:18.309Z,30.19
2024-05-09T14:16:26.360Z,32.05
2024-05-09T14:21:31.720Z,30.28
2024-05-09T14:26:36.918Z,32.76
2024-05-09T14:31:44.760Z,33.00
2024-05-09T14:36:50.024Z,30.46
2024-05-09T14:41:55.331Z,30.23
2024-05-09T14:47:03.193Z,31.25
2024-05-09T14:52:09.531Z,31.12
2024-05-09T14:57:14.714Z,31.67
2024-05-09T15:02:22.636Z,31.50
2024-05-09T15:07:28.082Z,29.94
2024-05-09T15:12:33.315Z,30.44
2024-05-09T15:17:41.658Z,31.94
2024-05-09T15:22:46.843Z,32.37
2024-05-09T15:27:52.147Z,31.89
2024-05-09T15:33:00.673Z,33.20
2024-05-09T15:38:09.612Z,32.72
2024-05-09T15:43:15.035Z,30.14
2024-05-09T15:48:23.079Z,31.57
2024-05-09T15:53:29.136Z,32.68
2024-05-09T15:58:34.332Z,29.99
2024-05-09T16:03:42.274Z,29.03
2024-05-09T16:08:47.662Z,29.46
2024-05-09T16:13:52.798Z,29.17
2024-05-09T16:19:00.674Z,31.48
2024-05-09T16:24:06.057Z,30.11
2024-05-09T16:29:11.423Z,28.09
2024-05-09T16:34:19.316Z,30.57
2024-05-09T16:39:24.453Z,27.65
2024-05-09T16:44:31.019Z,28.00
2024-05-09T16:49:39.726Z,30.73
2024-05-09T16:54:44.966Z,30.56
2024-05-09T16:59:50.222Z,27.93
2024-05-09T17:04:58.165Z,30.01
2024-05-09T17:10:03.984Z,28.90
2024-05-09T17:15:10.308Z,29.91
2024-05-09T17:20:28.898Z,31.08
2024-05-09T17:25:38.606Z,29.84
2024-05-09T17:30:44.339Z,30.18
2024-05-09T17:35:52.840Z,30.89
2024-05-09T17:40:58.208Z,29.85
2024-05-09T17:46:03.455Z,29.80
2024-05-09T17:51:11.386Z,30.17
2024-05-09T17:56:17.496Z,30.57
2024-05-09T18:01:24.082Z,30.67
2024-05-09T18:06:31.849Z,31.20
2024-05-09T18:11:37.089Z,30.91
2024-05-09T18:16:42.271Z,31.22
2024-05-09T18:21:51.758Z,32.52
2024-05-09T18:26:56.964Z,32.34
2024-05-09T18:32:02.154Z,33.32
2024-05-09T18:37:10.158Z,33.45
2024-05-09T18:42:15.446Z,33.56
2024-05-09T18:47:20.975Z,33.94
2024-05-09T18:52:28.907Z,34.42
2024-05-09T18:57:34.779Z,34.57
2024-05-09T19:02:40.216Z,34.49
2024-05-09T19:07:48.192Z,34.62
2024-05-09T19:12:53.441Z,34.78
2024-05-09T19:17:58.779Z,35.38
2024-05-09T19:23:07.654Z,35.84
2024-05-09T19:28:12.980Z,36.19
2024-05-09T19:33:18.500Z,36.22
2024-05-09T19:38:26.392Z,36.27
2024-05-09T19:43:33.806Z,36.74
2024-05-09T19:48:40.684Z,36.86
2024-05-09T19:53:50.632Z,37.60
2024-05-09T19:58:55.797Z,37.60
2024-05-09T20:04:01.115Z,38.23
2024-05-09T20:09:09.165Z,37.85
2024-05-09T20:14:14.860Z,38.75
2024-05-09T20:19:20.204Z,38.79
2024-05-09T20:24:28.041Z,39.39
2024-05-09T20:29:34.231Z,40.25
2024-05-09T20:34:39.591Z,40.41
2024-05-09T20:39:47.544Z,40.43
2024-05-09T20:44:52.697Z,40.30
2024-05-09T20:49:57.941Z,40.45
2024-05-09T20:55:05.831Z,40.69
2024-05-09T21:00:18.366Z,41.07
2024-05-09T21:05:24.568Z,40.85
2024-05-09T21:10:33.960Z,41.28
2024-05-09T21:15:39.818Z,42.21
2024-05-09T21:20:45.241Z,42.49
2024-05-09T21:25:53.035Z,42.98
2024-05-09T21:30:58.557Z,43.42
2024-05-09T21:36:03.683Z,43.98
2024-05-09T21:41:12.636Z,43.58
2024-05-09T21:46:17.772Z,43.88
2024-05-09T21:51:22.911Z,43.75
2024-05-09T21:56:30.821Z,43.36
2024-05-09T22:01:36.201Z,44.55
2024-05-09T22:06:41.516Z,44.05
2024-05-09T22:11:52.034Z,44.84
2024-05-09T22:16:58.074Z,45.56
2024-05-09T22:22:03.282Z,46.12
2024-05-09T22:27:11.965Z,46.03
2024-05-09T22:32:17.266Z,46.51
2024-05-09T22:37:22.477Z,47.29
2024-05-09T22:42:30.263Z,46.52
2024-05-09T22:47:35.648Z,46.85
2024-05-09T22:52:40.919Z,47.24
2024-05-09T22:57:48.776Z,46.54
2024-05-09T23:02:57.128Z,47.17
2024-05-09T23:08:03.423Z,47.77
2024-05-09T23:13:11.269Z,48.23
2024-05-09T23:18:16.563Z,49.19
2024-05-09T23:23:22.085Z,48.70
2024-05-09T23:28:30.413Z,48.17
2024-05-09T23:33:35.875Z,49.05
2024-05-09T23:38:41.827Z,49.36
2024-05-09T23:43:49.608Z,48.88
2024-05-09T23:48:54.832Z,49.37
2024-05-09T23:54:00.088Z,49.17
2024-05-09T23:59:08.634Z,49.81
